الصفحة الرئيسية
METAR-TAF:

METAR-TAF

مطار :

Cooma, أستراليا

دائرة عرض: 36-18-00S, خط طول: 148-58-24E, ارتفاع: 947 متر

مراقبة الطقس الحالي

تاريخ ووقت الإصدار 34 دقيقة قبل الساعة 17:00UTC
ريح 1 عقدة من الغرب/الشمال الغربي
درجة الحرارة -2°درجة مئوية
الرطوبة 93%
ضغط 1014 hPa
الرؤية 10 كم أو أكثر

METAR: YCOM 221700Z AUTO 30001KT 9999 // NCD M02/M03 Q1014

زمن: 03:34 (17:34 UTC)


TAF: مفقودة

أرصاد الطقس والتوقعات من أكثر من 4000 مطار (تقارير الطقس للمطار METAR والتنبؤ بالطقس بالمطارTAF).

المحطات المتاحة هي النقط الصفراء والحمراء على الخريطة.

حرك المؤشر فوق النقطة لمعرفة اسم المحطة.

ثم انقر لمعرفة أرصاد وتوقعات الطقس.

لتغيير الخارطة: اضغط على الأزرار الخضراء مع رمز الصليب الأسود للتكبير. على الزر الأخضر مع شرطة للتصغير، أو على الأسهم الخضراء للخرائط المجاورة.


METAR-TAF: